sensor_id;sensor_type;location;lat;lon;timestamp;pressure;altitude;pressure_sealevel;temperature;humidity
13695;BME280;6919;52.344;14.518;2023-03-01T00:01:49;102229.06;;;-2.65;100.00
13695;BME280;6919;52.344;14.518;2023-03-01T00:04:18;102231.13;;;-2.80;100.00
13695;BME280;6919;52.344;14.518;2023-03-01T00:06:47;102229.44;;;-2.83;100.00
13695;BME280;6919;52.344;14.518;2023-03-01T00:09:16;102225.13;;;-2.85;100.00
13695;BME280;6919;52.344;14.518;2023-03-01T00:11:46;102222.88;;;-2.62;100.00
13695;BME280;6919;52.344;14.518;2023-03-01T00:14:15;102227.44;;;-2.70;100.00
13695;BME280;6919;52.344;14.518;2023-03-01T00:16:45;102225.91;;;-2.82;100.00
13695;BME280;6919;52.344;14.518;2023-03-01T00:19:16;102226.88;;;-2.86;100.00
13695;BME280;6919;52.344;14.518;2023-03-01T00:21:45;102222.44;;;-2.82;100.00
13695;BME280;6919;52.344;14.518;2023-03-01T00:24:14;102217.28;;;-2.87;100.00
13695;BME280;6919;52.344;14.518;2023-03-01T00:26:44;102213.84;;;-2.92;100.00
13695;BME280;6919;52.344;14.518;2023-03-01T00:29:13;102212.63;;;-2.74;100.00
13695;BME280;6919;52.344;14.518;2023-03-01T00:31:42;102201.47;;;-2.84;100.00
13695;BME280;6919;52.344;14.518;2023-03-01T00:34:11;102206.84;;;-2.90;100.00
13695;BME280;6919;52.344;14.518;2023-03-01T00:36:39;102215.66;;;-2.94;100.00
13695;BME280;6919;52.344;14.518;2023-03-01T00:39:11;102208.47;;;-2.84;100.00
13695;BME280;6919;52.344;14.518;2023-03-01T00:41:40;102211.72;;;-2.72;100.00
13695;BME280;6919;52.344;14.518;2023-03-01T00:44:11;102215.66;;;-2.94;100.00
13695;BME280;6919;52.344;14.518;2023-03-01T00:46:39;102213.09;;;-2.97;100.00
13695;BME280;6919;52.344;14.518;2023-03-01T00:49:08;102203.59;;;-3.03;100.00
13695;BME280;6919;52.344;14.518;2023-03-01T00:51:37;102217.59;;;-3.02;100.00
13695;BME280;6919;52.344;14.518;2023-03-01T00:54:08;102209.63;;;-2.99;100.00
13695;BME280;6919;52.344;14.518;2023-03-01T00:56:37;102206.97;;;-2.97;100.00
13695;BME280;6919;52.344;14.518;2023-03-01T00:59:06;102212.81;;;-2.83;100.00
13695;BME280;6919;52.344;14.518;2023-03-01T01:01:36;102209.47;;;-2.91;100.00
13695;BME280;6919;52.344;14.518;2023-03-01T01:04:06;102206.06;;;-2.95;100.00
13695;BME280;6919;52.344;14.518;2023-03-01T01:06:37;102210.59;;;-3.05;100.00
13695;BME280;6919;52.344;14.518;2023-03-01T01:09:07;102209.97;;;-3.16;100.00
13695;BME280;6919;52.344;14.518;2023-03-01T01:11:36;102211.81;;;-3.21;100.00
13695;BME280;6919;52.344;14.518;2023-03-01T01:14:05;102217.94;;;-3.20;100.00
13695;BME280;6919;52.344;14.518;2023-03-01T01:16:35;102203.78;;;-3.13;100.00
13695;BME280;6919;52.344;14.518;2023-03-01T01:19:04;102202.00;;;-3.11;100.00
13695;BME280;6919;52.344;14.518;2023-03-01T01:21:32;102192.47;;;-3.15;100.00
13695;BME280;6919;52.344;14.518;2023-03-01T01:24:03;102202.06;;;-3.14;100.00
13695;BME280;6919;52.344;14.518;2023-03-01T01:26:33;102192.44;;;-3.14;100.00
13695;BME280;6919;52.344;14.518;2023-03-01T01:29:04;102194.09;;;-3.08;100.00
13695;BME280;6919;52.344;14.518;2023-03-01T01:31:36;102190.38;;;-2.98;100.00
13695;BME280;6919;52.344;14.518;2023-03-01T01:34:07;102184.09;;;-2.89;100.00
13695;BME280;6919;52.344;14.518;2023-03-01T01:36:36;102181.94;;;-3.14;100.00
13695;BME280;6919;52.344;14.518;2023-03-01T01:39:05;102179.66;;;-3.30;100.00
13695;BME280;6919;52.344;14.518;2023-03-01T01:41:34;102177.91;;;-3.31;100.00
13695;BME280;6919;52.344;14.518;2023-03-01T01:44:15;102172.91;;;-3.43;100.00
13695;BME280;6919;52.344;14.518;2023-03-01T01:46:49;102174.81;;;-3.51;100.00
13695;BME280;6919;52.344;14.518;2023-03-01T01:49:25;102173.13;;;-3.55;100.00
13695;BME280;6919;52.344;14.518;2023-03-01T01:52:00;102176.66;;;-3.58;100.00
13695;BME280;6919;52.344;14.518;2023-03-01T01:54:35;102181.09;;;-3.61;100.00
13695;BME280;6919;52.344;14.518;2023-03-01T01:57:09;102182.75;;;-3.56;100.00
13695;BME280;6919;52.344;14.518;2023-03-01T01:59:39;102178.47;;;-3.60;100.00
13695;BME280;6919;52.344;14.518;2023-03-01T02:02:12;102178.56;;;-3.67;100.00
13695;BME280;6919;52.344;14.518;2023-03-01T02:04:41;102171.63;;;-3.70;100.00
13695;BME280;6919;52.344;14.518;2023-03-01T02:07:14;102174.31;;;-3.73;100.00
13695;BME280;6919;52.344;14.518;2023-03-01T02:09:46;102176.09;;;-3.75;100.00
13695;BME280;6919;52.344;14.518;2023-03-01T02:12:17;102176.03;;;-3.72;100.00
13695;BME280;6919;52.344;14.518;2023-03-01T02:14:47;102186.50;;;-3.72;100.00
13695;BME280;6919;52.344;14.518;2023-03-01T02:17:18;102187.38;;;-3.70;100.00
13695;BME280;6919;52.344;14.518;2023-03-01T02:20:02;102181.09;;;-3.61;100.00
13695;BME280;6919;52.344;14.518;2023-03-01T02:22:35;102176.47;;;-3.47;100.00
13695;BME280;6919;52.344;14.518;2023-03-01T02:25:21;102170.59;;;-3.60;100.00
13695;BME280;6919;52.344;14.518;2023-03-01T02:27:58;102177.91;;;-3.78;100.00
13695;BME280;6919;52.344;14.518;2023-03-01T02:30:31;102175.22;;;-3.75;100.00
13695;BME280;6919;52.344;14.518;2023-03-01T02:33:03;102172.63;;;-3.77;100.00
13695;BME280;6919;52.344;14.518;2023-03-01T02:35:33;102174.50;;;-3.83;100.00
13695;BME280;6919;52.344;14.518;2023-03-01T02:38:06;102172.91;;;-3.92;100.00
13695;BME280;6919;52.344;14.518;2023-03-01T02:40:36;102175.63;;;-3.99;100.00
13695;BME280;6919;52.344;14.518;2023-03-01T02:43:08;102173.97;;;-4.03;100.00
13695;BME280;6919;52.344;14.518;2023-03-01T02:45:47;102170.31;;;-3.95;100.00
13695;BME280;6919;52.344;14.518;2023-03-01T02:48:16;102158.88;;;-3.89;100.00
13695;BME280;6919;52.344;14.518;2023-03-01T02:50:57;102164.19;;;-3.94;100.00
13695;BME280;6919;52.344;14.518;2023-03-01T02:53:39;102162.44;;;-3.93;100.00
13695;BME280;6919;52.344;14.518;2023-03-01T02:56:10;102155.56;;;-3.99;100.00
13695;BME280;6919;52.344;14.518;2023-03-01T02:58:40;102151.06;;;-3.92;100.00
13695;BME280;6919;52.344;14.518;2023-03-01T03:01:14;102158.56;;;-3.71;100.00
13695;BME280;6919;52.344;14.518;2023-03-01T03:03:43;102166.94;;;-4.00;100.00
13695;BME280;6919;52.344;14.518;2023-03-01T03:06:12;102160.88;;;-4.05;100.00
13695;BME280;6919;52.344;14.518;2023-03-01T03:08:42;102161.88;;;-4.13;100.00
13695;BME280;6919;52.344;14.518;2023-03-01T03:11:11;102161.00;;;-4.12;100.00
13695;BME280;6919;52.344;14.518;2023-03-01T03:13:39;102155.66;;;-4.06;100.00
13695;BME280;6919;52.344;14.518;2023-03-01T03:16:16;102154.88;;;-4.11;100.00
13695;BME280;6919;52.344;14.518;2023-03-01T03:18:45;102159.31;;;-4.16;100.00
13695;BME280;6919;52.344;14.518;2023-03-01T03:21:14;102156.69;;;-4.16;100.00
13695;BME280;6919;52.344;14.518;2023-03-01T03:23:43;102148.03;;;-4.20;100.00
13695;BME280;6919;52.344;14.518;2023-03-01T03:26:12;102147.22;;;-4.25;100.00
13695;BME280;6919;52.344;14.518;2023-03-01T03:28:42;102149.00;;;-4.25;100.00
13695;BME280;6919;52.344;14.518;2023-03-01T03:31:11;102143.66;;;-4.19;100.00
13695;BME280;6919;52.344;14.518;2023-03-01T03:33:41;102140.16;;;-4.18;100.00
13695;BME280;6919;52.344;14.518;2023-03-01T03:36:13;102136.56;;;-4.11;100.00
13695;BME280;6919;52.344;14.518;2023-03-01T03:38:45;102135.63;;;-4.07;100.00
13695;BME280;6919;52.344;14.518;2023-03-01T03:41:14;102135.69;;;-4.13;100.00
13695;BME280;6919;52.344;14.518;2023-03-01T03:43:43;102120.03;;;-4.16;100.00
13695;BME280;6919;52.344;14.518;2023-03-01T03:46:12;102115.91;;;-3.79;100.00
13695;BME280;6919;52.344;14.518;2023-03-01T03:48:44;102115.53;;;-4.07;100.00
13695;BME280;6919;52.344;14.518;2023-03-01T03:51:14;102102.56;;;-4.14;100.00
13695;BME280;6919;52.344;14.518;2023-03-01T03:53:44;102110.16;;;-4.01;100.00
13695;BME280;6919;52.344;14.518;2023-03-01T03:56:13;102110.38;;;-4.13;100.00
13695;BME280;6919;52.344;14.518;2023-03-01T03:58:41;102108.75;;;-4.20;100.00
13695;BME280;6919;52.344;14.518;2023-03-01T04:01:10;102112.47;;;-4.33;100.00
13695;BME280;6919;52.344;14.518;2023-03-01T04:03:39;102111.75;;;-4.42;100.00
13695;BME280;6919;52.344;14.518;2023-03-01T04:06:10;102107.91;;;-4.22;100.00
13695;BME280;6919;52.344;14.518;2023-03-01T04:08:38;102103.94;;;-3.94;100.00
13695;BME280;6919;52.344;14.518;2023-03-01T04:11:08;102098.72;;;-3.95;100.00
13695;BME280;6919;52.344;14.518;2023-03-01T04:13:57;102100.28;;;-3.85;100.00
13695;BME280;6919;52.344;14.518;2023-03-01T04:16:27;102096.66;;;-3.78;100.00
13695;BME280;6919;52.344;14.518;2023-03-01T04:18:57;102090.00;;;-3.94;100.00
13695;BME280;6919;52.344;14.518;2023-03-01T04:21:28;102086.53;;;-3.98;100.00
13695;BME280;6919;52.344;14.518;2023-03-01T04:23:56;102088.78;;;-3.77;100.00
13695;BME280;6919;52.344;14.518;2023-03-01T04:26:25;102090.34;;;-3.67;100.00
13695;BME280;6919;52.344;14.518;2023-03-01T04:28:54;102092.94;;;-3.65;100.00
13695;BME280;6919;52.344;14.518;2023-03-01T04:31:23;102089.47;;;-3.67;100.00
13695;BME280;6919;52.344;14.518;2023-03-01T04:33:53;102088.63;;;-3.68;100.00
13695;BME280;6919;52.344;14.518;2023-03-01T04:36:24;102091.03;;;-4.04;100.00
13695;BME280;6919;52.344;14.518;2023-03-01T04:38:55;102084.22;;;-4.14;100.00
13695;BME280;6919;52.344;14.518;2023-03-01T04:41:24;102087.03;;;-4.26;100.00
13695;BME280;6919;52.344;14.518;2023-03-01T04:43:54;102093.94;;;-4.21;100.00
13695;BME280;6919;52.344;14.518;2023-03-01T04:46:22;102085.72;;;-4.00;100.00
13695;BME280;6919;52.344;14.518;2023-03-01T04:48:52;102077.81;;;-3.98;100.00
13695;BME280;6919;52.344;14.518;2023-03-01T04:51:21;102083.41;;;-4.19;100.00
13695;BME280;6919;52.344;14.518;2023-03-01T04:53:50;102086.59;;;-4.52;100.00
13695;BME280;6919;52.344;14.518;2023-03-01T04:56:20;102089.22;;;-4.52;100.00
13695;BME280;6919;52.344;14.518;2023-03-01T04:58:52;102094.44;;;-4.52;100.00
13695;BME280;6919;52.344;14.518;2023-03-01T05:01:21;102095.31;;;-4.52;100.00
13695;BME280;6919;52.344;14.518;2023-03-01T05:03:51;102097.91;;;-4.50;100.00
13695;BME280;6919;52.344;14.518;2023-03-01T05:06:20;102094.41;;;-4.49;100.00
13695;BME280;6919;52.344;14.518;2023-03-01T05:08:49;102089.22;;;-4.52;100.00
13695;BME280;6919;52.344;14.518;2023-03-01T05:11:20;102089.19;;;-4.51;100.00
13695;BME280;6919;52.344;14.518;2023-03-01T05:13:48;102094.41;;;-4.49;100.00
13695;BME280;6919;52.344;14.518;2023-03-01T05:16:22;102095.25;;;-4.47;100.00
13695;BME280;6919;52.344;14.518;2023-03-01T05:18:51;102081.34;;;-4.51;100.00
13695;BME280;6919;52.344;14.518;2023-03-01T05:21:19;102085.69;;;-4.51;100.00
13695;BME280;6919;52.344;14.518;2023-03-01T05:23:48;102082.06;;;-4.41;100.00
13695;BME280;6919;52.344;14.518;2023-03-01T05:26:19;102075.38;;;-4.59;100.00
13695;BME280;6919;52.344;14.518;2023-03-01T05:29:05;102070.25;;;-4.66;100.00
13695;BME280;6919;52.344;14.518;2023-03-01T05:31:36;102078.97;;;-4.66;100.00
13695;BME280;6919;52.344;14.518;2023-03-01T05:34:06;102071.03;;;-4.60;100.00
13695;BME280;6919;52.344;14.518;2023-03-01T05:36:34;102080.66;;;-4.62;100.00
13695;BME280;6919;52.344;14.518;2023-03-01T05:39:03;102076.09;;;-4.49;100.00
13695;BME280;6919;52.344;14.518;2023-03-01T05:41:33;102078.34;;;-4.28;100.00
13695;BME280;6919;52.344;14.518;2023-03-01T05:44:02;102073.81;;;-4.17;100.00
13695;BME280;6919;52.344;14.518;2023-03-01T05:46:32;102077.63;;;-4.36;100.00
13695;BME280;6919;52.344;14.518;2023-03-01T05:49:00;102083.81;;;-4.42;100.00
13695;BME280;6919;52.344;14.518;2023-03-01T05:51:29;102095.19;;;-4.44;100.00
13695;BME280;6919;52.344;14.518;2023-03-01T05:53:58;102087.31;;;-4.43;100.00
13695;BME280;6919;52.344;14.518;2023-03-01T05:56:28;102095.94;;;-4.36;100.00
13695;BME280;6919;52.344;14.518;2023-03-01T05:58:59;102089.75;;;-4.31;100.00
13695;BME280;6919;52.344;14.518;2023-03-01T06:01:27;102102.69;;;-4.22;100.00
13695;BME280;6919;52.344;14.518;2023-03-01T06:03:56;102090.13;;;-4.03;100.00
13695;BME280;6919;52.344;14.518;2023-03-01T06:06:25;102087.84;;;-3.74;100.00
13695;BME280;6919;52.344;14.518;2023-03-01T06:08:55;102088.28;;;-3.98;100.00
13695;BME280;6919;52.344;14.518;2023-03-01T06:11:24;102089.50;;;-4.17;100.00
13695;BME280;6919;52.344;14.518;2023-03-01T06:13:53;102092.03;;;-4.11;100.00
13695;BME280;6919;52.344;14.518;2023-03-01T06:16:23;102091.00;;;-4.01;100.00
13695;BME280;6919;52.344;14.518;2023-03-01T06:18:51;102099.41;;;-3.86;100.00
13695;BME280;6919;52.344;14.518;2023-03-01T06:21:20;102095.16;;;-3.91;100.00
13695;BME280;6919;52.344;14.518;2023-03-01T06:23:49;102097.66;;;-3.84;100.00
13695;BME280;6919;52.344;14.518;2023-03-01T06:26:19;102111.28;;;-3.65;100.00
13695;BME280;6919;52.344;14.518;2023-03-01T06:28:47;102107.59;;;-3.54;100.00
13695;BME280;6919;52.344;14.518;2023-03-01T06:31:17;102103.59;;;-3.30;100.00
13695;BME280;6919;52.344;14.518;2023-03-01T06:33:47;102102.88;;;-3.38;100.00
13695;BME280;6919;52.344;14.518;2023-03-01T06:36:15;102101.16;;;-3.39;100.00
13695;BME280;6919;52.344;14.518;2023-03-01T06:38:46;102103.72;;;-3.36;100.00
13695;BME280;6919;52.344;14.518;2023-03-01T06:41:14;102099.56;;;-3.03;100.00
13695;BME280;6919;52.344;14.518;2023-03-01T06:43:43;102099.31;;;-2.93;100.00
13695;BME280;6919;52.344;14.518;2023-03-01T06:46:12;102098.84;;;-3.13;100.00
13695;BME280;6919;52.344;14.518;2023-03-01T06:48:40;102106.38;;;-2.95;100.00
13695;BME280;6919;52.344;14.518;2023-03-01T06:51:10;102105.31;;;-2.86;100.00
13695;BME280;6919;52.344;14.518;2023-03-01T06:53:39;102109.72;;;-2.88;100.00
13695;BME280;6919;52.344;14.518;2023-03-01T06:56:07;102113.09;;;-2.83;100.00
13695;BME280;6919;52.344;14.518;2023-03-01T06:58:36;102111.97;;;-2.72;100.00
13695;BME280;6919;52.344;14.518;2023-03-01T07:01:06;102117.69;;;-2.55;100.00
13695;BME280;6919;52.344;14.518;2023-03-01T07:03:35;102114.81;;;-2.44;100.00
13695;BME280;6919;52.344;14.518;2023-03-01T07:06:04;102116.22;;;-2.30;100.00
13695;BME280;6919;52.344;14.518;2023-03-01T07:08:34;102118.00;;;-2.32;100.00
13695;BME280;6919;52.344;14.518;2023-03-01T07:11:03;102115.06;;;-2.18;100.00
13695;BME280;6919;52.344;14.518;2023-03-01T07:13:32;102113.78;;;-2.02;100.00
13695;BME280;6919;52.344;14.518;2023-03-01T07:16:01;102118.66;;;-1.87;100.00
13695;BME280;6919;52.344;14.518;2023-03-01T07:18:30;102122.41;;;-1.64;100.00
13695;BME280;6919;52.344;14.518;2023-03-01T07:21:03;102116.28;;;-1.32;100.00
13695;BME280;6919;52.344;14.518;2023-03-01T07:23:31;102117.34;;;-1.09;100.00
13695;BME280;6919;52.344;14.518;2023-03-01T07:26:02;102124.97;;;-1.29;100.00
13695;BME280;6919;52.344;14.518;2023-03-01T07:28:31;102118.72;;;-1.25;100.00
13695;BME280;6919;52.344;14.518;2023-03-01T07:31:03;102123.72;;;-1.17;100.00
13695;BME280;6919;52.344;14.518;2023-03-01T07:33:32;102117.91;;;-0.98;100.00
13695;BME280;6919;52.344;14.518;2023-03-01T07:36:02;102120.19;;;-0.86;100.00
13695;BME280;6919;52.344;14.518;2023-03-01T07:38:31;102117.63;;;-0.60;100.00
13695;BME280;6919;52.344;14.518;2023-03-01T07:41:03;102112.44;;;-0.63;100.00
13695;BME280;6919;52.344;14.518;2023-03-01T07:43:32;102110.75;;;-0.38;100.00
13695;BME280;6919;52.344;14.518;2023-03-01T07:46:02;102108.81;;;-0.31;100.00
13695;BME280;6919;52.344;14.518;2023-03-01T07:52:12;102105.72;;;-0.18;100.00
13695;BME280;6919;52.344;14.518;2023-03-01T07:54:43;102098.09;;;-0.27;100.00
13695;BME280;6919;52.344;14.518;2023-03-01T07:57:13;102106.84;;;0.01;100.00
13695;BME280;6919;52.344;14.518;2023-03-01T07:59:42;102105.31;;;-0.06;100.00
13695;BME280;6919;52.344;14.518;2023-03-01T08:02:12;102099.47;;;-0.15;100.00
13695;BME280;6919;52.344;14.518;2023-03-01T08:04:42;102103.22;;;0.06;100.00
13695;BME280;6919;52.344;14.518;2023-03-01T08:07:10;102091.50;;;0.39;100.00
13695;BME280;6919;52.344;14.518;2023-03-01T08:09:39;102093.53;;;0.31;100.00
13695;BME280;6919;52.344;14.518;2023-03-01T08:12:08;102089.59;;;0.42;100.00
13695;BME280;6919;52.344;14.518;2023-03-01T08:14:38;102093.25;;;0.63;100.00
13695;BME280;6919;52.344;14.518;2023-03-01T08:17:06;102098.53;;;0.63;100.00
13695;BME280;6919;52.344;14.518;2023-03-01T08:19:36;102095.50;;;0.73;100.00
13695;BME280;6919;52.344;14.518;2023-03-01T08:22:05;102095.69;;;0.92;100.00
13695;BME280;6919;52.344;14.518;2023-03-01T08:24:34;102088.50;;;1.18;100.00
13695;BME280;6919;52.344;14.518;2023-03-01T08:27:02;102086.13;;;1.34;100.00
13695;BME280;6919;52.344;14.518;2023-03-01T08:29:31;102082.38;;;1.39;100.00
13695;BME280;6919;52.344;14.518;2023-03-01T08:32:01;102084.47;;;1.31;100.00
13695;BME280;6919;52.344;14.518;2023-03-01T08:34:30;102073.69;;;1.36;100.00
13695;BME280;6919;52.344;14.518;2023-03-01T08:36:59;102076.88;;;1.45;100.00
13695;BME280;6919;52.344;14.518;2023-03-01T08:39:28;102077.91;;;1.63;100.00
13695;BME280;6919;52.344;14.518;2023-03-01T08:41:57;102074.38;;;1.84;100.00
13695;BME280;6919;52.344;14.518;2023-03-01T08:44:26;102075.91;;;1.89;100.00
13695;BME280;6919;52.344;14.518;2023-03-01T08:46:54;102083.03;;;2.29;100.00
13695;BME280;6919;52.344;14.518;2023-03-01T08:49:26;102085.81;;;2.46;100.00
13695;BME280;6919;52.344;14.518;2023-03-01T08:51:54;102076.28;;;2.42;100.00
13695;BME280;6919;52.344;14.518;2023-03-01T08:54:23;102074.06;;;2.71;100.00
13695;BME280;6919;52.344;14.518;2023-03-01T08:56:52;102082.28;;;3.04;100.00
13695;BME280;6919;52.344;14.518;2023-03-01T08:59:20;102087.66;;;3.02;100.00
13695;BME280;6919;52.344;14.518;2023-03-01T09:01:49;102085.06;;;3.01;100.00
13695;BME280;6919;52.344;14.518;2023-03-01T09:04:17;102079.47;;;3.44;100.00
13695;BME280;6919;52.344;14.518;2023-03-01T09:06:48;102078.19;;;3.34;100.00
13695;BME280;6919;52.344;14.518;2023-03-01T09:09:17;102079.19;;;3.50;100.00
13695;BME280;6919;52.344;14.518;2023-03-01T09:11:46;102076.13;;;3.41;100.00
13695;BME280;6919;52.344;14.518;2023-03-01T09:14:17;102070.75;;;3.24;100.00
13695;BME280;6919;52.344;14.518;2023-03-01T09:16:46;102073.53;;;3.21;100.00
13695;BME280;6919;52.344;14.518;2023-03-01T09:19:15;102063.44;;;3.29;100.00
13695;BME280;6919;52.344;14.518;2023-03-01T09:21:43;102073.53;;;3.75;100.00
13695;BME280;6919;52.344;14.518;2023-03-01T09:24:22;102072.97;;;4.04;100.00
13695;BME280;6919;52.344;14.518;2023-03-01T09:26:54;102060.63;;;4.20;100.00
13695;BME280;6919;52.344;14.518;2023-03-01T09:29:23;102065.94;;;4.20;100.00
13695;BME280;6919;52.344;14.518;2023-03-01T09:31:53;102075.31;;;4.44;100.00
13695;BME280;6919;52.344;14.518;2023-03-01T09:34:23;102075.53;;;4.56;100.00
13695;BME280;6919;52.344;14.518;2023-03-01T09:36:52;102075.84;;;4.33;91.29
13695;BME280;6919;52.344;14.518;2023-03-01T09:39:21;102078.75;;;4.46;92.70
13695;BME280;6919;52.344;14.518;2023-03-01T09:41:57;102079.06;;;4.57;85.08
13695;BME280;6919;52.344;14.518;2023-03-01T09:44:33;102077.09;;;4.43;83.04
13695;BME280;6919;52.344;14.518;2023-03-01T09:47:05;102069.63;;;4.17;82.37
13695;BME280;6919;52.344;14.518;2023-03-01T09:49:40;102076.47;;;4.21;81.50
13695;BME280;6919;52.344;14.518;2023-03-01T09:52:19;102078.78;;;4.61;87.47
13695;BME280;6919;52.344;14.518;2023-03-01T09:54:54;102078.16;;;4.73;81.63
13695;BME280;6919;52.344;14.518;2023-03-01T09:57:30;102076.34;;;5.06;80.81
13695;BME280;6919;52.344;14.518;2023-03-01T10:00:13;102069.31;;;5.05;78.69
13695;BME280;6919;52.344;14.518;2023-03-01T10:02:47;102074.22;;;5.28;79.53
13695;BME280;6919;52.344;14.518;2023-03-01T10:05:39;102073.63;;;5.39;74.58
13695;BME280;6919;52.344;14.518;2023-03-01T10:08:28;102073.63;;;5.23;71.64
13695;BME280;6919;52.344;14.518;2023-03-01T10:11:00;102070.19;;;5.06;74.09
13695;BME280;6919;52.344;14.518;2023-03-01T10:13:34;102064.84;;;5.21;77.93
13695;BME280;6919;52.344;14.518;2023-03-01T10:16:11;102069.41;;;5.19;74.26
13695;BME280;6919;52.344;14.518;2023-03-01T10:18:45;102072.25;;;5.16;74.23
13695;BME280;6919;52.344;14.518;2023-03-01T10:21:17;102063.75;;;5.25;74.02
13695;BME280;6919;52.344;14.518;2023-03-01T10:23:46;102053.09;;;4.94;75.29
13695;BME280;6919;52.344;14.518;2023-03-01T10:26:30;102054.22;;;5.21;75.60
13695;BME280;6919;52.344;14.518;2023-03-01T10:29:05;102050.28;;;4.97;72.25
13695;BME280;6919;52.344;14.518;2023-03-01T10:31:40;102045.28;;;4.91;73.96
13695;BME280;6919;52.344;14.518;2023-03-01T10:34:12;102046.75;;;4.97;76.15
13695;BME280;6919;52.344;14.518;2023-03-01T10:36:43;102049.75;;;5.06;74.25
13695;BME280;6919;52.344;14.518;2023-03-01T10:39:15;102043.06;;;4.99;71.33
13695;BME280;6919;52.344;14.518;2023-03-01T10:41:58;102046.75;;;5.12;74.18
13695;BME280;6919;52.344;14.518;2023-03-01T10:44:45;102049.03;;;4.87;73.36
13695;BME280;6919;52.344;14.518;2023-03-01T10:47:19;102038.81;;;5.43;73.99
13695;BME280;6919;52.344;14.518;2023-03-01T10:49:59;102038.94;;;5.71;71.52
13695;BME280;6919;52.344;14.518;2023-03-01T10:52:32;102033.03;;;5.51;67.46
13695;BME280;6919;52.344;14.518;2023-03-01T10:55:04;102038.47;;;5.79;65.80
13695;BME280;6919;52.344;14.518;2023-03-01T10:57:50;102030.19;;;5.85;64.34
13695;BME280;6919;52.344;14.518;2023-03-01T11:00:34;102034.84;;;5.66;61.34
13695;BME280;6919;52.344;14.518;2023-03-01T11:03:16;102027.44;;;5.71;59.97
13695;BME280;6919;52.344;14.518;2023-03-01T11:05:58;102029.22;;;5.86;57.41
13695;BME280;6919;52.344;14.518;2023-03-01T11:08:40;102029.41;;;6.13;54.48
13695;BME280;6919;52.344;14.518;2023-03-01T11:11:21;102019.00;;;6.38;56.26
13695;BME280;6919;52.344;14.518;2023-03-01T11:13:59;102018.97;;;6.24;57.47
13695;BME280;6919;52.344;14.518;2023-03-01T11:16:35;102015.56;;;6.22;56.22
13695;BME280;6919;52.344;14.518;2023-03-01T11:19:17;102024.84;;;6.15;50.30
13695;BME280;6919;52.344;14.518;2023-03-01T11:21:55;102021.75;;;5.92;52.33
13695;BME280;6919;52.344;14.518;2023-03-01T11:24:30;102021.63;;;5.94;52.35
13695;BME280;6919;52.344;14.518;2023-03-01T11:27:04;102018.16;;;5.78;51.01
13695;BME280;6919;52.344;14.518;2023-03-01T11:29:40;102021.19;;;6.01;48.11
13695;BME280;6919;52.344;14.518;2023-03-01T11:32:16;102022.59;;;5.93;46.70
13695;BME280;6919;52.344;14.518;2023-03-01T11:34:49;102026.28;;;6.20;47.87
13695;BME280;6919;52.344;14.518;2023-03-01T11:37:32;102020.78;;;6.23;47.11
13695;BME280;6919;52.344;14.518;2023-03-01T11:40:15;102031.53;;;5.92;48.14
13695;BME280;6919;52.344;14.518;2023-03-01T11:43:01;102033.25;;;5.93;48.33
13695;BME280;6919;52.344;14.518;2023-03-01T11:45:39;102020.25;;;6.02;51.50
13695;BME280;6919;52.344;14.518;2023-03-01T11:48:33;102019.31;;;6.03;48.76
13695;BME280;6919;52.344;14.518;2023-03-01T11:51:23;102023.94;;;6.00;47.31
13695;BME280;6919;52.344;14.518;2023-03-01T11:54:09;102015.75;;;6.33;46.98
13695;BME280;6919;52.344;14.518;2023-03-01T11:56:45;102008.34;;;6.38;47.20
13695;BME280;6919;52.344;14.518;2023-03-01T11:59:51;102013.22;;;6.45;46.57
13695;BME280;6919;52.344;14.518;2023-03-01T12:03:01;102000.06;;;6.42;49.48
13695;BME280;6919;52.344;14.518;2023-03-01T12:06:06;101994.06;;;6.81;48.66
13695;BME280;6919;52.344;14.518;2023-03-01T12:08:43;101987.31;;;6.75;48.99
13695;BME280;6919;52.344;14.518;2023-03-01T12:11:23;101989.47;;;7.11;47.57
13695;BME280;6919;52.344;14.518;2023-03-01T12:17:00;101988.84;;;7.20;44.75
13695;BME280;6919;52.344;14.518;2023-03-01T12:19:48;101982.44;;;7.10;43.26
13695;BME280;6919;52.344;14.518;2023-03-01T12:22:30;101976.13;;;7.11;43.05
13695;BME280;6919;52.344;14.518;2023-03-01T12:25:12;101968.47;;;7.19;44.61
13695;BME280;6919;52.344;14.518;2023-03-01T12:27:57;101967.06;;;7.40;46.68
13695;BME280;6919;52.344;14.518;2023-03-01T12:30:38;101966.06;;;7.55;46.28
13695;BME280;6919;52.344;14.518;2023-03-01T12:33:19;101975.66;;;7.84;45.35
13695;BME280;6919;52.344;14.518;2023-03-01T12:36:07;101961.28;;;7.60;46.70
13695;BME280;6919;52.344;14.518;2023-03-01T12:38:42;101955.75;;;7.63;47.61
13695;BME280;6919;52.344;14.518;2023-03-01T12:41:42;101943.56;;;7.59;47.07
13695;BME280;6919;52.344;14.518;2023-03-01T12:44:23;101951.22;;;7.51;46.74
13695;BME280;6919;52.344;14.518;2023-03-01T12:47:13;101949.25;;;7.67;46.47
13695;BME280;6919;52.344;14.518;2023-03-01T12:49:49;101947.00;;;7.73;45.47
13695;BME280;6919;52.344;14.518;2023-03-01T12:52:26;101940.78;;;7.73;44.10
13695;BME280;6919;52.344;14.518;2023-03-01T12:54:57;101943.34;;;7.62;44.17
13695;BME280;6919;52.344;14.518;2023-03-01T12:57:33;101942.53;;;7.74;43.58
13695;BME280;6919;52.344;14.518;2023-03-01T13:00:18;101929.09;;;7.75;42.94
13695;BME280;6919;52.344;14.518;2023-03-01T13:02:55;101930.94;;;7.48;43.65
13695;BME280;6919;52.344;14.518;2023-03-01T13:05:34;101933.19;;;7.54;44.50
13695;BME280;6919;52.344;14.518;2023-03-01T13:08:16;101937.78;;;7.65;45.04
13695;BME280;6919;52.344;14.518;2023-03-01T13:10:50;101924.38;;;7.79;44.31
13695;BME280;6919;52.344;14.518;2023-03-01T13:13:23;101925.25;;;7.79;44.51
13695;BME280;6919;52.344;14.518;2023-03-01T13:15:53;101926.13;;;7.53;44.87
13695;BME280;6919;52.344;14.518;2023-03-01T13:18:30;101915.94;;;7.85;44.96
13695;BME280;6919;52.344;14.518;2023-03-01T13:21:01;101910.31;;;7.89;45.33
13695;BME280;6919;52.344;14.518;2023-03-01T13:23:36;101903.63;;;8.21;45.22